createdAt,value
2023-03-13T00:00:30.421Z,5.45
2023-03-13T00:02:57.287Z,5.45
2023-03-13T00:05:23.931Z,5.40
2023-03-13T00:07:50.628Z,5.46
2023-03-13T00:10:19.083Z,5.52
2023-03-13T00:12:45.778Z,5.50
2023-03-13T00:15:12.800Z,5.54
2023-03-13T00:17:47.070Z,5.53
2023-03-13T00:20:16.010Z,5.49
2023-03-13T00:22:45.971Z,5.48
2023-03-13T00:25:21.972Z,5.48
2023-03-13T00:27:49.516Z,5.55
2023-03-13T00:30:22.293Z,5.54
2023-03-13T00:32:49.154Z,5.57
2023-03-13T00:35:20.208Z,5.56
2023-03-13T00:37:49.819Z,5.58
2023-03-13T00:40:20.231Z,5.64
2023-03-13T00:42:46.874Z,5.66
2023-03-13T00:45:13.576Z,5.68
2023-03-13T00:47:45.517Z,5.69
2023-03-13T00:50:12.390Z,5.68
2023-03-13T00:52:52.211Z,5.70
2023-03-13T00:55:19.077Z,5.71
2023-03-13T00:57:47.211Z,5.75
2023-03-13T01:00:22.977Z,5.68
2023-03-13T01:02:49.704Z,5.72
2023-03-13T01:05:19.493Z,5.69
2023-03-13T01:07:46.214Z,5.72
2023-03-13T01:10:18.939Z,5.70
2023-03-13T01:12:45.744Z,5.69
2023-03-13T01:15:18.142Z,5.73
2023-03-13T01:17:47.394Z,5.71
2023-03-13T01:20:19.437Z,5.72
2023-03-13T01:22:49.241Z,5.72
2023-03-13T01:25:38.386Z,5.69
2023-03-13T01:28:05.414Z,5.77
2023-03-13T01:30:32.330Z,5.76
2023-03-13T01:32:59.083Z,5.73
2023-03-13T01:35:25.841Z,5.75
2023-03-13T01:37:52.505Z,5.78
2023-03-13T01:40:19.471Z,5.84
2023-03-13T01:43:00.103Z,5.83
2023-03-13T01:46:05.550Z,5.84
2023-03-13T01:48:45.331Z,5.90
2023-03-13T01:51:25.750Z,5.87
2023-03-13T01:54:21.179Z,5.81
2023-03-13T01:57:21.893Z,5.83
2023-03-13T02:00:04.417Z,5.83
2023-03-13T02:02:31.842Z,5.81
2023-03-13T02:05:09.355Z,5.81
2023-03-13T02:07:54.674Z,5.82
2023-03-13T02:10:23.620Z,5.86
2023-03-13T02:12:52.405Z,5.84
2023-03-13T02:15:25.979Z,5.83
2023-03-13T02:17:54.852Z,5.84
2023-03-13T02:20:23.962Z,5.83
2023-03-13T02:23:29.523Z,5.78
2023-03-13T02:25:57.047Z,5.78
2023-03-13T02:28:33.795Z,5.84
2023-03-13T02:31:02.225Z,5.82
2023-03-13T02:33:45.513Z,5.84
2023-03-13T02:36:17.326Z,5.83
2023-03-13T02:39:14.198Z,5.88
2023-03-13T02:41:50.251Z,5.87
2023-03-13T02:44:16.987Z,5.82
2023-03-13T02:46:52.546Z,5.78
2023-03-13T02:49:32.880Z,5.79
2023-03-13T02:52:49.801Z,5.77
2023-03-13T02:55:30.071Z,5.71
2023-03-13T02:57:57.030Z,5.68
2023-03-13T03:00:27.650Z,5.68
2023-03-13T03:02:55.413Z,5.66
2023-03-13T03:05:24.772Z,5.78
2023-03-13T03:07:54.606Z,5.70
2023-03-13T03:10:27.601Z,5.69
2023-03-13T03:12:54.223Z,5.70
2023-03-13T03:15:22.665Z,5.68
2023-03-13T03:17:49.318Z,5.69
2023-03-13T03:20:16.122Z,5.68
2023-03-13T03:22:46.134Z,5.67
2023-03-13T03:25:13.144Z,5.64
2023-03-13T03:27:45.991Z,5.68
2023-03-13T03:30:13.132Z,5.63
2023-03-13T03:32:41.987Z,5.68
2023-03-13T03:35:11.004Z,5.66
2023-03-13T03:37:44.068Z,5.67
2023-03-13T03:40:12.509Z,5.66
2023-03-13T03:42:42.333Z,5.68
2023-03-13T03:45:09.624Z,5.66
2023-03-13T03:47:36.287Z,5.64
2023-03-13T03:50:04.361Z,5.68
2023-03-13T03:52:36.388Z,5.65
2023-03-13T03:55:03.166Z,5.66
2023-03-13T03:57:33.132Z,5.69
2023-03-13T03:59:59.860Z,5.67
2023-03-13T04:02:26.516Z,5.66
2023-03-13T04:04:58.800Z,5.64
2023-03-13T04:07:26.319Z,5.68
2023-03-13T04:09:53.051Z,5.63
2023-03-13T04:12:24.062Z,5.66
2023-03-13T04:14:50.716Z,5.67
2023-03-13T04:17:27.044Z,5.67
2023-03-13T04:19:53.782Z,5.72
2023-03-13T04:22:23.476Z,5.70
2023-03-13T04:24:53.305Z,5.76
2023-03-13T04:27:20.034Z,5.78
2023-03-13T04:29:46.962Z,5.77
2023-03-13T04:32:13.955Z,5.79
2023-03-13T04:34:43.673Z,5.85
2023-03-13T04:37:10.536Z,5.89
2023-03-13T04:39:37.227Z,5.88
2023-03-13T04:42:07.416Z,5.91
2023-03-13T04:44:43.613Z,5.90
2023-03-13T04:47:12.234Z,5.95
2023-03-13T04:49:44.413Z,5.91
2023-03-13T04:52:11.593Z,5.89
2023-03-13T04:54:39.646Z,5.92
2023-03-13T04:57:06.513Z,5.95
2023-03-13T04:59:33.195Z,5.94
2023-03-13T05:01:59.862Z,5.95
2023-03-13T05:04:26.560Z,5.90
2023-03-13T05:06:53.229Z,5.97
2023-03-13T05:09:19.989Z,5.95
2023-03-13T05:11:59.095Z,5.93
2023-03-13T05:14:26.203Z,5.92
2023-03-13T05:16:52.809Z,5.90
2023-03-13T05:19:19.670Z,5.91
2023-03-13T05:21:46.456Z,5.86
2023-03-13T05:24:13.069Z,5.88
2023-03-13T05:26:43.954Z,5.87
2023-03-13T05:29:10.712Z,5.85
2023-03-13T05:31:37.352Z,5.81
2023-03-13T05:34:06.720Z,5.83
2023-03-13T05:36:33.686Z,5.83
2023-03-13T05:39:00.548Z,5.81
2023-03-13T05:41:27.251Z,5.85
2023-03-13T05:43:53.971Z,5.83
2023-03-13T05:46:20.749Z,5.80
2023-03-13T05:48:47.571Z,5.83
2023-03-13T05:51:14.274Z,5.80
2023-03-13T05:53:49.692Z,5.83
2023-03-13T05:56:16.325Z,5.84
2023-03-13T05:58:48.756Z,5.86
2023-03-13T06:01:15.543Z,5.86
2023-03-13T06:03:45.239Z,5.84
2023-03-13T06:06:11.939Z,5.87
2023-03-13T06:08:38.628Z,5.91
2023-03-13T06:11:05.557Z,5.92
2023-03-13T06:13:32.301Z,5.91
2023-03-13T06:15:59.952Z,5.90
2023-03-13T06:18:29.675Z,5.90
2023-03-13T06:21:01.535Z,5.91
2023-03-13T06:23:35.456Z,5.90
2023-03-13T06:26:02.171Z,5.95
2023-03-13T06:28:29.171Z,5.96
2023-03-13T06:31:01.454Z,5.96
2023-03-13T06:33:34.658Z,6.02
2023-03-13T06:36:03.115Z,6.02
2023-03-13T06:38:31.566Z,6.03
2023-03-13T06:40:59.327Z,6.05
2023-03-13T06:43:30.095Z,6.05
2023-03-13T06:45:59.959Z,6.09
2023-03-13T06:48:29.351Z,6.10
2023-03-13T06:50:56.607Z,6.09
2023-03-13T06:53:23.477Z,6.13
2023-03-13T06:55:53.040Z,6.13
2023-03-13T06:58:31.738Z,6.20
2023-03-13T07:01:12.709Z,6.21
2023-03-13T07:03:52.209Z,6.27
2023-03-13T07:06:19.383Z,6.29
2023-03-13T07:08:49.714Z,6.34
2023-03-13T07:11:16.610Z,6.37
2023-03-13T07:13:43.731Z,6.40
2023-03-13T07:16:16.659Z,6.43
2023-03-13T07:18:44.813Z,6.51
2023-03-13T07:21:12.948Z,6.57
2023-03-13T07:34:32.518Z,6.86
2023-03-13T07:36:59.288Z,6.91
2023-03-13T07:39:28.569Z,6.96
2023-03-13T07:55:20.079Z,7.56
2023-03-13T07:57:46.741Z,7.63
2023-03-13T08:00:16.452Z,7.68
2023-03-13T08:02:46.191Z,7.75
2023-03-13T08:05:13.032Z,7.78
2023-03-13T08:07:43.427Z,7.82
2023-03-13T08:10:11.183Z,7.87
2023-03-13T08:12:37.825Z,7.90
2023-03-13T08:15:05.246Z,7.95
2023-03-13T08:17:33.617Z,7.95
2023-03-13T08:20:00.290Z,8.03
2023-03-13T08:22:26.920Z,8.07
2023-03-13T08:24:59.772Z,8.11
2023-03-13T08:27:32.850Z,8.19
2023-03-13T08:29:59.514Z,8.21
2023-03-13T08:32:26.182Z,8.27
2023-03-13T08:34:52.829Z,8.32
2023-03-13T08:37:19.640Z,8.37
2023-03-13T08:39:46.425Z,8.42
2023-03-13T08:42:14.319Z,8.52
2023-03-13T08:44:44.710Z,8.60
2023-03-13T08:47:11.428Z,8.65
2023-03-13T08:49:45.271Z,8.66
2023-03-13T08:52:12.004Z,8.73
2023-03-13T08:54:38.723Z,8.84
2023-03-13T08:57:05.427Z,8.92
2023-03-13T08:59:35.221Z,8.96
2023-03-13T09:02:03.061Z,9.06
2023-03-13T09:04:31.933Z,9.15
2023-03-13T09:06:58.915Z,9.18
2023-03-13T09:09:25.566Z,9.27
2023-03-13T09:11:54.826Z,9.28
2023-03-13T09:14:21.589Z,9.28
2023-03-13T09:16:51.199Z,9.30
2023-03-13T09:19:18.008Z,9.32
2023-03-13T09:21:46.478Z,9.34
2023-03-13T09:24:13.214Z,9.45
2023-03-13T09:26:46.470Z,9.50
2023-03-13T09:29:15.742Z,9.57
2023-03-13T09:31:42.659Z,9.59
2023-03-13T09:34:15.403Z,9.58
2023-03-13T09:36:45.222Z,9.61
2023-03-13T09:39:12.016Z,9.67
2023-03-13T09:42:07.916Z,9.74
2023-03-13T09:45:16.532Z,9.82
2023-03-13T09:48:02.865Z,9.90
2023-03-13T09:50:44.835Z,9.93
2023-03-13T09:53:33.198Z,9.96
2023-03-13T09:56:05.260Z,10.01
2023-03-13T09:58:35.606Z,10.09
2023-03-13T10:01:06.227Z,10.12
2023-03-13T10:04:33.120Z,10.13
2023-03-13T10:06:59.847Z,10.21
2023-03-13T10:09:37.658Z,10.26
2023-03-13T10:12:12.390Z,10.29
2023-03-13T10:14:47.246Z,10.29
2023-03-13T10:17:31.317Z,10.27
2023-03-13T10:20:28.939Z,10.27
2023-03-13T10:24:00.276Z,10.26
2023-03-13T10:26:37.675Z,10.30
2023-03-13T10:29:25.118Z,10.33
2023-03-13T10:32:10.518Z,10.36
2023-03-13T10:35:06.040Z,10.38
2023-03-13T10:37:43.992Z,10.38
2023-03-13T10:40:28.701Z,10.41
2023-03-13T10:43:26.319Z,10.46
2023-03-13T10:45:53.899Z,10.52
2023-03-13T10:48:36.536Z,10.60
2023-03-13T10:51:03.268Z,10.66
2023-03-13T10:53:29.992Z,10.80
2023-03-13T10:56:16.083Z,10.79
2023-03-13T10:58:53.086Z,10.83
2023-03-13T11:01:36.068Z,10.82
2023-03-13T11:04:38.251Z,11.02
2023-03-13T11:07:34.820Z,11.24
2023-03-13T11:10:29.961Z,11.42
2023-03-13T11:12:59.104Z,11.36
2023-03-13T11:15:38.313Z,11.39
2023-03-13T11:18:22.370Z,11.55
2023-03-13T11:20:50.094Z,11.56
2023-03-13T11:23:37.233Z,11.63
2023-03-13T11:26:29.745Z,11.74
2023-03-13T11:29:36.842Z,11.84
2023-03-13T11:32:25.228Z,11.98
2023-03-13T11:35:04.158Z,11.94
2023-03-13T11:37:44.534Z,12.06
2023-03-13T11:40:22.645Z,13.04
2023-03-13T11:43:57.925Z,13.28
2023-03-13T11:47:15.544Z,12.97
2023-03-13T11:50:14.091Z,12.90
2023-03-13T11:53:58.572Z,12.83
2023-03-13T11:56:57.576Z,12.71
2023-03-13T11:59:54.361Z,12.58
2023-03-13T12:02:41.634Z,12.70
2023-03-13T12:05:26.246Z,13.06
2023-03-13T12:08:07.819Z,13.51
2023-03-13T12:11:17.956Z,13.64
2023-03-13T13:33:58.998Z,14.98
2023-03-13T13:36:43.307Z,14.46
2023-03-13T13:39:53.984Z,14.73
2023-03-13T13:42:30.684Z,14.82
2023-03-13T13:45:33.376Z,15.64
2023-03-13T13:48:48.687Z,15.31
2023-03-13T13:51:19.627Z,15.03
2023-03-13T13:54:05.716Z,15.65
2023-03-13T13:57:22.943Z,14.78
2023-03-13T14:00:24.160Z,14.82
2023-03-13T14:02:55.490Z,14.30
2023-03-13T14:05:32.387Z,14.19
2023-03-13T14:08:20.266Z,14.23
2023-03-13T14:11:07.710Z,14.04
2023-03-13T14:13:34.629Z,14.14
2023-03-13T14:16:25.632Z,14.16
2023-03-13T14:18:53.538Z,14.09
2023-03-13T14:21:25.390Z,13.91
2023-03-13T14:23:53.285Z,13.82
2023-03-13T14:26:28.949Z,13.84
2023-03-13T14:29:06.655Z,13.78
2023-03-13T14:31:39.200Z,14.30
2023-03-13T14:34:12.900Z,14.07
2023-03-13T14:37:14.833Z,13.94
2023-03-13T14:39:48.602Z,15.08
2023-03-13T14:42:20.142Z,15.77
2023-03-13T14:44:50.347Z,14.97
2023-03-13T14:47:31.411Z,14.57
2023-03-13T14:50:10.129Z,14.21
2023-03-13T14:52:42.265Z,14.09
2023-03-13T14:55:21.789Z,13.95
2023-03-13T14:58:29.393Z,13.98
2023-03-13T15:01:15.751Z,13.90
2023-03-13T15:03:48.727Z,13.88
2023-03-13T15:06:23.876Z,13.97
2023-03-13T15:09:10.597Z,13.89
2023-03-13T15:12:02.878Z,13.87
2023-03-13T15:14:54.219Z,13.83
2023-03-13T15:17:26.599Z,13.85
2023-03-13T15:19:59.547Z,13.79
2023-03-13T15:22:32.792Z,13.71
2023-03-13T15:25:07.946Z,13.67
2023-03-13T15:27:35.879Z,13.64
2023-03-13T15:30:03.041Z,13.78
2023-03-13T15:32:37.515Z,13.62
2023-03-13T15:35:23.136Z,13.46
2023-03-13T15:37:51.684Z,13.63
2023-03-13T15:40:20.152Z,13.48
2023-03-13T15:42:47.361Z,13.32
2023-03-13T15:45:14.166Z,13.15
2023-03-13T15:47:45.935Z,13.10
2023-03-13T15:50:18.773Z,13.36
2023-03-13T15:52:55.424Z,13.34
2023-03-13T15:55:29.065Z,13.16
2023-03-13T15:57:56.098Z,12.96
2023-03-13T16:00:26.438Z,12.91
2023-03-13T16:02:53.386Z,13.07
2023-03-13T16:05:20.501Z,13.05
2023-03-13T16:07:47.394Z,12.93
2023-03-13T16:10:43.171Z,12.80
2023-03-13T16:13:10.342Z,12.70
2023-03-13T16:15:37.820Z,12.58
2023-03-13T16:18:06.560Z,12.59
2023-03-13T16:20:46.882Z,12.51
2023-03-13T16:23:15.305Z,12.47
2023-03-13T16:25:49.314Z,12.48
2023-03-13T16:28:16.582Z,12.42
2023-03-13T16:31:12.979Z,12.40
2023-03-13T16:33:41.572Z,12.43
2023-03-13T16:36:17.986Z,12.36
2023-03-13T16:38:54.685Z,12.29
2023-03-13T16:41:25.314Z,12.32
2023-03-13T16:43:56.621Z,12.33
2023-03-13T16:47:04.435Z,12.24
2023-03-13T16:49:42.008Z,12.23
2023-03-13T16:52:17.892Z,12.14
2023-03-13T16:54:47.971Z,12.03
2023-03-13T16:57:24.061Z,12.13
2023-03-13T16:59:52.399Z,12.00
2023-03-13T17:02:20.945Z,11.87
2023-03-13T17:04:54.184Z,11.68
2023-03-13T17:07:30.953Z,11.69
2023-03-13T17:09:57.836Z,11.79
2023-03-13T17:12:27.404Z,11.78
2023-03-13T17:14:54.310Z,11.69
2023-03-13T17:17:23.452Z,11.70
2023-03-13T17:19:50.335Z,11.59
2023-03-13T17:22:18.916Z,11.62
2023-03-13T17:24:49.306Z,11.61
2023-03-13T17:27:21.809Z,11.53
2023-03-13T17:29:50.911Z,11.52
2023-03-13T17:32:17.805Z,11.58
2023-03-13T17:34:52.181Z,11.58
2023-03-13T17:37:21.648Z,11.48
2023-03-13T17:39:51.541Z,11.43
2023-03-13T17:42:19.023Z,11.30
2023-03-13T17:44:48.994Z,11.39
2023-03-13T17:47:26.487Z,11.34
2023-03-13T17:49:53.271Z,11.45
2023-03-13T17:52:22.937Z,11.38
2023-03-13T17:54:51.042Z,11.36
2023-03-13T17:57:29.072Z,11.38
2023-03-13T17:59:55.822Z,11.28
2023-03-13T18:02:26.268Z,11.18
2023-03-13T18:04:56.747Z,11.26
2023-03-13T18:07:32.796Z,11.22
2023-03-13T18:09:59.608Z,11.19
2023-03-13T18:12:29.613Z,11.29
2023-03-13T18:14:56.236Z,11.29
2023-03-13T18:17:27.697Z,11.35
2023-03-13T18:19:54.352Z,11.31
2023-03-13T18:22:21.604Z,11.46
2023-03-13T18:24:56.994Z,11.50
2023-03-13T18:27:32.963Z,11.49
2023-03-13T18:29:59.696Z,11.58
2023-03-13T18:32:31.457Z,11.54
2023-03-13T18:35:00.168Z,11.60
2023-03-13T18:37:35.632Z,11.64
2023-03-13T18:40:04.358Z,11.66
2023-03-13T18:42:31.097Z,11.61
2023-03-13T18:44:58.893Z,11.55
2023-03-13T18:47:28.455Z,11.59
2023-03-13T18:49:55.535Z,11.63
2023-03-13T18:52:24.558Z,11.63
2023-03-13T18:54:51.215Z,11.70
2023-03-13T18:57:22.163Z,11.70
2023-03-13T19:36:17.567Z,11.09
2023-03-13T20:09:09.250Z,11.01
2023-03-13T20:33:16.105Z,10.62
2023-03-13T20:49:11.385Z,10.26
2023-03-13T21:21:29.902Z,9.73
2023-03-13T22:01:59.415Z,9.42
2023-03-13T22:18:31.519Z,9.37
2023-03-13T22:21:00.154Z,9.54
2023-03-13T22:23:27.098Z,9.46
2023-03-13T22:25:59.416Z,9.61
2023-03-13T22:28:27.371Z,9.56
2023-03-13T22:30:54.258Z,9.64
2023-03-13T22:33:21.288Z,9.58
2023-03-13T22:35:54.544Z,9.63
2023-03-13T22:38:22.432Z,9.66
2023-03-13T22:41:02.993Z,9.66
2023-03-13T22:43:30.687Z,9.54
2023-03-13T22:45:59.871Z,9.59
2023-03-13T22:48:27.794Z,9.64
2023-03-13T22:51:13.138Z,9.53
2023-03-13T22:53:43.642Z,9.46
2023-03-13T22:56:12.411Z,9.55
2023-03-13T22:58:41.990Z,9.51
2023-03-13T23:01:13.687Z,9.56
2023-03-13T23:03:44.964Z,9.52
2023-03-13T23:06:20.923Z,9.36
2023-03-13T23:08:47.948Z,9.16
2023-03-13T23:11:15.789Z,9.15
2023-03-13T23:13:45.458Z,9.12
2023-03-13T23:16:13.829Z,9.17
2023-03-13T23:18:44.645Z,9.07
2023-03-13T23:21:14.979Z,9.06
2023-03-13T23:23:44.869Z,8.95
2023-03-13T23:26:15.934Z,8.99
2023-03-13T23:28:45.715Z,9.06
2023-03-13T23:31:18.408Z,9.05
2023-03-13T23:33:51.273Z,8.83
2023-03-13T23:36:19.775Z,8.94
2023-03-13T23:38:53.507Z,8.92
2023-03-13T23:41:21.741Z,8.81
2023-03-13T23:43:48.494Z,8.71
2023-03-13T23:46:23.408Z,8.63
2023-03-13T23:48:56.514Z,8.63
2023-03-13T23:51:25.117Z,8.62
2023-03-13T23:53:52.187Z,8.65
2023-03-13T23:56:19.488Z,8.56
2023-03-13T23:58:46.144Z,8.54
